sensor_id;sensor_type;location;lat;lon;timestamp;temperature;humidity
60717;DHT22;46566;52.700;6.192;2023-05-23T00:01:35;15.10;99.90
60717;DHT22;46566;52.700;6.192;2023-05-23T00:04:03;15.10;99.90
60717;DHT22;46566;52.700;6.192;2023-05-23T00:06:28;15.10;99.90
60717;DHT22;46566;52.700;6.192;2023-05-23T00:08:55;15.00;99.90
60717;DHT22;46566;52.700;6.192;2023-05-23T00:11:22;15.00;99.90
60717;DHT22;46566;52.700;6.192;2023-05-23T00:13:52;15.00;99.90
60717;DHT22;46566;52.700;6.192;2023-05-23T00:16:18;15.00;99.90
60717;DHT22;46566;52.700;6.192;2023-05-23T00:18:44;14.90;99.90
60717;DHT22;46566;52.700;6.192;2023-05-23T00:21:11;14.80;99.90
60717;DHT22;46566;52.700;6.192;2023-05-23T00:23:38;14.80;99.90
60717;DHT22;46566;52.700;6.192;2023-05-23T00:26:08;14.70;99.90
60717;DHT22;46566;52.700;6.192;2023-05-23T00:28:36;14.60;99.90
60717;DHT22;46566;52.700;6.192;2023-05-23T00:31:02;14.60;99.90
60717;DHT22;46566;52.700;6.192;2023-05-23T00:33:27;14.50;99.90
60717;DHT22;46566;52.700;6.192;2023-05-23T00:35:54;14.40;99.90
60717;DHT22;46566;52.700;6.192;2023-05-23T00:38:20;14.40;99.90
60717;DHT22;46566;52.700;6.192;2023-05-23T00:40:46;14.40;99.90
60717;DHT22;46566;52.700;6.192;2023-05-23T00:43:12;14.40;99.90
60717;DHT22;46566;52.700;6.192;2023-05-23T00:45:38;14.30;99.90
60717;DHT22;46566;52.700;6.192;2023-05-23T00:48:04;14.30;99.90
60717;DHT22;46566;52.700;6.192;2023-05-23T00:50:31;14.30;99.90
60717;DHT22;46566;52.700;6.192;2023-05-23T00:52:59;14.30;99.90
60717;DHT22;46566;52.700;6.192;2023-05-23T00:55:25;14.20;99.90
60717;DHT22;46566;52.700;6.192;2023-05-23T00:57:53;14.20;99.90
60717;DHT22;46566;52.700;6.192;2023-05-23T01:00:25;14.20;99.90
60717;DHT22;46566;52.700;6.192;2023-05-23T01:02:51;14.20;99.90
60717;DHT22;46566;52.700;6.192;2023-05-23T01:05:19;14.20;99.90
60717;DHT22;46566;52.700;6.192;2023-05-23T01:07:48;14.20;99.90
60717;DHT22;46566;52.700;6.192;2023-05-23T01:10:17;14.20;99.90
60717;DHT22;46566;52.700;6.192;2023-05-23T01:15:20;14.20;99.90
60717;DHT22;46566;52.700;6.192;2023-05-23T01:20:40;14.20;99.90
60717;DHT22;46566;52.700;6.192;2023-05-23T01:28:19;14.10;99.90
60717;DHT22;46566;52.700;6.192;2023-05-23T01:30:50;14.10;99.90
60717;DHT22;46566;52.700;6.192;2023-05-23T01:33:17;14.20;99.90
60717;DHT22;46566;52.700;6.192;2023-05-23T01:35:44;14.10;99.90
60717;DHT22;46566;52.700;6.192;2023-05-23T01:38:10;14.10;99.90
60717;DHT22;46566;52.700;6.192;2023-05-23T01:40:37;14.10;99.90
60717;DHT22;46566;52.700;6.192;2023-05-23T01:43:03;14.10;99.90
60717;DHT22;46566;52.700;6.192;2023-05-23T01:45:29;14.10;99.90
60717;DHT22;46566;52.700;6.192;2023-05-23T01:47:55;14.10;99.90
60717;DHT22;46566;52.700;6.192;2023-05-23T01:50:22;14.10;99.90
60717;DHT22;46566;52.700;6.192;2023-05-23T01:52:49;14.10;99.90
60717;DHT22;46566;52.700;6.192;2023-05-23T01:55:16;14.10;99.90
60717;DHT22;46566;52.700;6.192;2023-05-23T01:57:49;14.10;99.90
60717;DHT22;46566;52.700;6.192;2023-05-23T02:00:16;14.10;99.90
60717;DHT22;46566;52.700;6.192;2023-05-23T02:02:47;14.10;99.90
60717;DHT22;46566;52.700;6.192;2023-05-23T02:05:15;14.00;99.90
60717;DHT22;46566;52.700;6.192;2023-05-23T02:07:41;14.00;99.90
60717;DHT22;46566;52.700;6.192;2023-05-23T02:10:08;13.90;99.90
60717;DHT22;46566;52.700;6.192;2023-05-23T02:12:34;13.90;99.90
60717;DHT22;46566;52.700;6.192;2023-05-23T02:15:00;14.00;99.90
60717;DHT22;46566;52.700;6.192;2023-05-23T02:17:26;13.90;99.90
60717;DHT22;46566;52.700;6.192;2023-05-23T02:19:52;13.90;99.90
60717;DHT22;46566;52.700;6.192;2023-05-23T02:22:22;13.90;99.90
60717;DHT22;46566;52.700;6.192;2023-05-23T02:24:49;13.90;99.90
60717;DHT22;46566;52.700;6.192;2023-05-23T02:27:15;13.90;99.90
60717;DHT22;46566;52.700;6.192;2023-05-23T02:29:40;13.80;99.90
60717;DHT22;46566;52.700;6.192;2023-05-23T02:32:06;13.80;99.90
60717;DHT22;46566;52.700;6.192;2023-05-23T02:34:32;13.80;99.90
60717;DHT22;46566;52.700;6.192;2023-05-23T02:36:58;13.80;99.90
60717;DHT22;46566;52.700;6.192;2023-05-23T02:39:25;13.80;99.90
60717;DHT22;46566;52.700;6.192;2023-05-23T02:41:51;13.80;99.90
60717;DHT22;46566;52.700;6.192;2023-05-23T02:44:17;13.80;99.90
60717;DHT22;46566;52.700;6.192;2023-05-23T02:46:44;13.80;99.90
60717;DHT22;46566;52.700;6.192;2023-05-23T02:49:11;13.80;99.90
60717;DHT22;46566;52.700;6.192;2023-05-23T02:51:37;13.80;99.90
60717;DHT22;46566;52.700;6.192;2023-05-23T02:54:02;13.80;99.90
60717;DHT22;46566;52.700;6.192;2023-05-23T02:56:29;13.80;99.90
60717;DHT22;46566;52.700;6.192;2023-05-23T02:58:55;13.80;99.90
60717;DHT22;46566;52.700;6.192;2023-05-23T03:01:21;13.80;99.90
60717;DHT22;46566;52.700;6.192;2023-05-23T03:03:47;13.70;99.90
60717;DHT22;46566;52.700;6.192;2023-05-23T03:06:13;13.70;99.90
60717;DHT22;46566;52.700;6.192;2023-05-23T03:08:41;13.70;99.90
60717;DHT22;46566;52.700;6.192;2023-05-23T03:11:07;13.70;99.90
60717;DHT22;46566;52.700;6.192;2023-05-23T03:13:34;13.70;99.90
60717;DHT22;46566;52.700;6.192;2023-05-23T03:16:00;13.70;99.90
60717;DHT22;46566;52.700;6.192;2023-05-23T03:18:26;13.60;99.90
60717;DHT22;46566;52.700;6.192;2023-05-23T03:20:51;13.60;99.90
60717;DHT22;46566;52.700;6.192;2023-05-23T03:23:50;13.60;99.90
60717;DHT22;46566;52.700;6.192;2023-05-23T03:26:22;13.60;99.90
60717;DHT22;46566;52.700;6.192;2023-05-23T03:28:49;13.60;99.90
60717;DHT22;46566;52.700;6.192;2023-05-23T03:31:18;13.60;99.90
60717;DHT22;46566;52.700;6.192;2023-05-23T03:33:44;13.50;99.90
60717;DHT22;46566;52.700;6.192;2023-05-23T03:36:09;13.60;99.90
60717;DHT22;46566;52.700;6.192;2023-05-23T03:38:35;13.50;99.90
60717;DHT22;46566;52.700;6.192;2023-05-23T03:41:01;13.50;99.90
60717;DHT22;46566;52.700;6.192;2023-05-23T03:43:27;13.50;99.90
60717;DHT22;46566;52.700;6.192;2023-05-23T03:45:53;13.40;99.90
60717;DHT22;46566;52.700;6.192;2023-05-23T03:48:19;13.40;99.90
60717;DHT22;46566;52.700;6.192;2023-05-23T03:50:45;13.50;99.90
60717;DHT22;46566;52.700;6.192;2023-05-23T03:53:11;13.40;99.90
60717;DHT22;46566;52.700;6.192;2023-05-23T03:55:38;13.40;99.90
60717;DHT22;46566;52.700;6.192;2023-05-23T03:58:04;13.40;99.90
60717;DHT22;46566;52.700;6.192;2023-05-23T04:00:31;13.40;99.90
60717;DHT22;46566;52.700;6.192;2023-05-23T04:02:58;13.30;99.90
60717;DHT22;46566;52.700;6.192;2023-05-23T04:05:24;13.40;99.90
60717;DHT22;46566;52.700;6.192;2023-05-23T04:07:50;13.30;99.90
60717;DHT22;46566;52.700;6.192;2023-05-23T04:10:18;13.30;99.90
60717;DHT22;46566;52.700;6.192;2023-05-23T04:12:45;13.30;99.90
60717;DHT22;46566;52.700;6.192;2023-05-23T04:15:14;13.30;99.90
60717;DHT22;46566;52.700;6.192;2023-05-23T04:17:50;13.30;99.90
60717;DHT22;46566;52.700;6.192;2023-05-23T04:20:16;13.20;99.90
60717;DHT22;46566;52.700;6.192;2023-05-23T04:22:42;13.20;99.90
60717;DHT22;46566;52.700;6.192;2023-05-23T04:25:08;13.20;99.90
60717;DHT22;46566;52.700;6.192;2023-05-23T04:27:39;13.20;99.90
60717;DHT22;46566;52.700;6.192;2023-05-23T04:30:07;13.10;99.90
60717;DHT22;46566;52.700;6.192;2023-05-23T04:32:35;13.10;99.90
60717;DHT22;46566;52.700;6.192;2023-05-23T04:35:01;13.20;99.90
60717;DHT22;46566;52.700;6.192;2023-05-23T04:37:29;13.10;99.90
60717;DHT22;46566;52.700;6.192;2023-05-23T04:39:57;13.10;99.90
60717;DHT22;46566;52.700;6.192;2023-05-23T04:42:40;13.10;99.90
60717;DHT22;46566;52.700;6.192;2023-05-23T04:45:23;13.10;99.90
60717;DHT22;46566;52.700;6.192;2023-05-23T04:47:57;13.00;99.90
60717;DHT22;46566;52.700;6.192;2023-05-23T04:50:39;13.00;99.90
60717;DHT22;46566;52.700;6.192;2023-05-23T04:53:05;13.00;99.90
60717;DHT22;46566;52.700;6.192;2023-05-23T04:55:31;13.00;99.90
60717;DHT22;46566;52.700;6.192;2023-05-23T04:57:57;13.00;99.90
60717;DHT22;46566;52.700;6.192;2023-05-23T05:00:22;12.90;99.90
60717;DHT22;46566;52.700;6.192;2023-05-23T05:02:49;12.90;99.90
60717;DHT22;46566;52.700;6.192;2023-05-23T05:05:15;12.90;99.90
60717;DHT22;46566;52.700;6.192;2023-05-23T05:07:40;12.90;99.90
60717;DHT22;46566;52.700;6.192;2023-05-23T05:10:08;12.90;99.90
60717;DHT22;46566;52.700;6.192;2023-05-23T05:12:44;12.90;99.90
60717;DHT22;46566;52.700;6.192;2023-05-23T05:15:12;12.90;99.90
60717;DHT22;46566;52.700;6.192;2023-05-23T05:17:39;12.90;99.90
60717;DHT22;46566;52.700;6.192;2023-05-23T05:20:08;12.90;99.90
60717;DHT22;46566;52.700;6.192;2023-05-23T05:22:37;12.80;99.90
60717;DHT22;46566;52.700;6.192;2023-05-23T05:25:09;12.80;99.90
60717;DHT22;46566;52.700;6.192;2023-05-23T05:27:35;12.80;99.90
60717;DHT22;46566;52.700;6.192;2023-05-23T05:30:07;12.90;99.90
60717;DHT22;46566;52.700;6.192;2023-05-23T05:32:42;12.90;99.90
60717;DHT22;46566;52.700;6.192;2023-05-23T05:35:10;12.80;99.90
60717;DHT22;46566;52.700;6.192;2023-05-23T05:37:39;12.80;99.90
60717;DHT22;46566;52.700;6.192;2023-05-23T05:40:06;12.80;99.90
60717;DHT22;46566;52.700;6.192;2023-05-23T05:42:34;12.70;99.90
60717;DHT22;46566;52.700;6.192;2023-05-23T05:45:00;12.70;99.90
60717;DHT22;46566;52.700;6.192;2023-05-23T05:47:27;12.60;99.90
60717;DHT22;46566;52.700;6.192;2023-05-23T05:49:54;12.60;99.90
60717;DHT22;46566;52.700;6.192;2023-05-23T05:52:19;12.60;99.90
60717;DHT22;46566;52.700;6.192;2023-05-23T05:54:45;12.50;99.90
60717;DHT22;46566;52.700;6.192;2023-05-23T05:57:11;12.50;99.90
60717;DHT22;46566;52.700;6.192;2023-05-23T05:59:37;12.40;99.90
60717;DHT22;46566;52.700;6.192;2023-05-23T06:02:03;12.40;99.90
60717;DHT22;46566;52.700;6.192;2023-05-23T06:04:29;12.40;99.90
60717;DHT22;46566;52.700;6.192;2023-05-23T06:06:56;12.40;99.90
60717;DHT22;46566;52.700;6.192;2023-05-23T06:09:22;12.40;99.90
60717;DHT22;46566;52.700;6.192;2023-05-23T06:11:48;12.40;99.90
60717;DHT22;46566;52.700;6.192;2023-05-23T06:14:14;12.40;99.90
60717;DHT22;46566;52.700;6.192;2023-05-23T06:16:43;12.40;99.90
60717;DHT22;46566;52.700;6.192;2023-05-23T06:19:09;12.40;99.90
60717;DHT22;46566;52.700;6.192;2023-05-23T06:21:36;12.40;99.90
60717;DHT22;46566;52.700;6.192;2023-05-23T06:24:04;12.40;99.90
60717;DHT22;46566;52.700;6.192;2023-05-23T06:26:30;12.40;99.90
60717;DHT22;46566;52.700;6.192;2023-05-23T06:28:56;12.40;99.90
60717;DHT22;46566;52.700;6.192;2023-05-23T06:31:22;12.50;99.90
60717;DHT22;46566;52.700;6.192;2023-05-23T06:33:47;12.50;99.90
60717;DHT22;46566;52.700;6.192;2023-05-23T06:36:13;12.50;99.90
60717;DHT22;46566;52.700;6.192;2023-05-23T06:38:39;12.50;99.90
60717;DHT22;46566;52.700;6.192;2023-05-23T06:41:05;12.50;99.90
60717;DHT22;46566;52.700;6.192;2023-05-23T06:43:32;12.50;99.90
60717;DHT22;46566;52.700;6.192;2023-05-23T06:46:17;12.50;99.90
60717;DHT22;46566;52.700;6.192;2023-05-23T06:48:43;12.60;99.90
60717;DHT22;46566;52.700;6.192;2023-05-23T06:51:09;12.60;99.90
60717;DHT22;46566;52.700;6.192;2023-05-23T06:53:36;12.70;99.90
60717;DHT22;46566;52.700;6.192;2023-05-23T06:56:01;12.60;99.90
60717;DHT22;46566;52.700;6.192;2023-05-23T06:58:30;12.60;99.90
60717;DHT22;46566;52.700;6.192;2023-05-23T07:00:57;12.60;99.90
60717;DHT22;46566;52.700;6.192;2023-05-23T07:03:25;12.50;99.90
60717;DHT22;46566;52.700;6.192;2023-05-23T07:05:53;12.50;99.90
60717;DHT22;46566;52.700;6.192;2023-05-23T07:08:21;12.50;99.90
60717;DHT22;46566;52.700;6.192;2023-05-23T07:11:05;12.40;99.90
60717;DHT22;46566;52.700;6.192;2023-05-23T07:13:36;12.50;99.90
60717;DHT22;46566;52.700;6.192;2023-05-23T07:16:02;12.60;99.90
60717;DHT22;46566;52.700;6.192;2023-05-23T07:18:32;12.70;99.90
60717;DHT22;46566;52.700;6.192;2023-05-23T07:20:58;12.80;99.90
60717;DHT22;46566;52.700;6.192;2023-05-23T07:23:24;12.90;99.90
60717;DHT22;46566;52.700;6.192;2023-05-23T07:25:50;13.00;99.90
60717;DHT22;46566;52.700;6.192;2023-05-23T07:28:24;13.10;99.90
60717;DHT22;46566;52.700;6.192;2023-05-23T07:30:51;13.20;99.90
60717;DHT22;46566;52.700;6.192;2023-05-23T07:33:17;13.30;99.90
60717;DHT22;46566;52.700;6.192;2023-05-23T07:35:44;13.40;99.90
60717;DHT22;46566;52.700;6.192;2023-05-23T07:38:10;13.40;99.90
60717;DHT22;46566;52.700;6.192;2023-05-23T07:40:36;13.50;99.90
60717;DHT22;46566;52.700;6.192;2023-05-23T07:43:03;13.50;99.90
60717;DHT22;46566;52.700;6.192;2023-05-23T07:45:29;13.50;99.90
60717;DHT22;46566;52.700;6.192;2023-05-23T07:47:55;13.50;99.90
60717;DHT22;46566;52.700;6.192;2023-05-23T07:50:22;13.50;99.90
60717;DHT22;46566;52.700;6.192;2023-05-23T07:52:50;13.40;99.90
60717;DHT22;46566;52.700;6.192;2023-05-23T07:55:19;13.40;99.90
60717;DHT22;46566;52.700;6.192;2023-05-23T07:57:46;13.30;99.90
60717;DHT22;46566;52.700;6.192;2023-05-23T08:00:12;13.40;99.90
60717;DHT22;46566;52.700;6.192;2023-05-23T08:02:42;13.40;99.90
60717;DHT22;46566;52.700;6.192;2023-05-23T08:05:14;13.40;99.90
60717;DHT22;46566;52.700;6.192;2023-05-23T08:07:40;13.50;99.90
60717;DHT22;46566;52.700;6.192;2023-05-23T08:10:06;13.50;99.90
60717;DHT22;46566;52.700;6.192;2023-05-23T08:12:32;13.60;99.90
60717;DHT22;46566;52.700;6.192;2023-05-23T08:15:08;13.60;99.90
60717;DHT22;46566;52.700;6.192;2023-05-23T08:17:43;13.60;99.90
60717;DHT22;46566;52.700;6.192;2023-05-23T08:20:10;13.60;99.90
60717;DHT22;46566;52.700;6.192;2023-05-23T08:22:36;13.60;99.90
60717;DHT22;46566;52.700;6.192;2023-05-23T08:25:04;13.60;99.90
60717;DHT22;46566;52.700;6.192;2023-05-23T08:27:32;13.60;99.90
60717;DHT22;46566;52.700;6.192;2023-05-23T08:30:05;13.60;99.90
60717;DHT22;46566;52.700;6.192;2023-05-23T08:32:33;13.70;99.90
60717;DHT22;46566;52.700;6.192;2023-05-23T08:34:59;13.70;99.90
60717;DHT22;46566;52.700;6.192;2023-05-23T08:37:25;13.80;99.90
60717;DHT22;46566;52.700;6.192;2023-05-23T08:39:51;13.90;99.90
60717;DHT22;46566;52.700;6.192;2023-05-23T08:42:37;13.80;99.90
60717;DHT22;46566;52.700;6.192;2023-05-23T08:45:05;13.80;99.90
60717;DHT22;46566;52.700;6.192;2023-05-23T08:47:33;14.00;99.90
60717;DHT22;46566;52.700;6.192;2023-05-23T08:50:04;14.40;99.90
60717;DHT22;46566;52.700;6.192;2023-05-23T08:52:32;14.80;99.90
60717;DHT22;46566;52.700;6.192;2023-05-23T08:55:05;14.90;99.90
60717;DHT22;46566;52.700;6.192;2023-05-23T08:57:32;15.00;99.90
60717;DHT22;46566;52.700;6.192;2023-05-23T09:00:13;15.30;99.90
60717;DHT22;46566;52.700;6.192;2023-05-23T09:03:06;15.50;99.90
60717;DHT22;46566;52.700;6.192;2023-05-23T09:05:44;15.90;99.90
60717;DHT22;46566;52.700;6.192;2023-05-23T09:08:10;16.20;99.90
60717;DHT22;46566;52.700;6.192;2023-05-23T09:10:50;16.50;99.90
60717;DHT22;46566;52.700;6.192;2023-05-23T09:13:17;16.50;99.90
60717;DHT22;46566;52.700;6.192;2023-05-23T09:18:43;16.40;99.90
60717;DHT22;46566;52.700;6.192;2023-05-23T09:21:12;16.50;99.90
60717;DHT22;46566;52.700;6.192;2023-05-23T09:23:45;16.90;99.90
60717;DHT22;46566;52.700;6.192;2023-05-23T09:26:12;17.60;99.90
60717;DHT22;46566;52.700;6.192;2023-05-23T09:29:05;18.00;99.90
60717;DHT22;46566;52.700;6.192;2023-05-23T09:31:32;18.40;99.90
60717;DHT22;46566;52.700;6.192;2023-05-23T09:33:58;18.50;99.90
60717;DHT22;46566;52.700;6.192;2023-05-23T09:36:45;18.40;98.70
60717;DHT22;46566;52.700;6.192;2023-05-23T09:39:11;18.20;99.90
60717;DHT22;46566;52.700;6.192;2023-05-23T09:41:37;18.20;99.90
60717;DHT22;46566;52.700;6.192;2023-05-23T09:44:06;18.20;99.90
60717;DHT22;46566;52.700;6.192;2023-05-23T09:46:34;18.40;99.90
60717;DHT22;46566;52.700;6.192;2023-05-23T09:49:25;18.40;95.50
60717;DHT22;46566;52.700;6.192;2023-05-23T09:51:58;18.50;99.30
60717;DHT22;46566;52.700;6.192;2023-05-23T09:54:24;18.70;99.90
60717;DHT22;46566;52.700;6.192;2023-05-23T09:57:02;18.70;87.00
60717;DHT22;46566;52.700;6.192;2023-05-23T09:59:31;18.50;99.90
60717;DHT22;46566;52.700;6.192;2023-05-23T10:01:59;18.20;99.90
60717;DHT22;46566;52.700;6.192;2023-05-23T10:04:30;18.00;99.90
60717;DHT22;46566;52.700;6.192;2023-05-23T10:07:13;17.80;99.90
60717;DHT22;46566;52.700;6.192;2023-05-23T10:09:47;17.50;99.90
60717;DHT22;46566;52.700;6.192;2023-05-23T10:15:38;17.50;99.90
60717;DHT22;46566;52.700;6.192;2023-05-23T10:18:29;17.60;99.90
60717;DHT22;46566;52.700;6.192;2023-05-23T10:21:06;17.60;99.90
60717;DHT22;46566;52.700;6.192;2023-05-23T10:23:34;17.80;99.80
60717;DHT22;46566;52.700;6.192;2023-05-23T10:26:19;18.00;99.90
60717;DHT22;46566;52.700;6.192;2023-05-23T10:28:45;18.30;91.10
60717;DHT22;46566;52.700;6.192;2023-05-23T10:31:11;18.20;99.90
60717;DHT22;46566;52.700;6.192;2023-05-23T10:33:41;18.00;99.90
60717;DHT22;46566;52.700;6.192;2023-05-23T10:36:32;17.80;99.90
60717;DHT22;46566;52.700;6.192;2023-05-23T10:39:07;17.80;99.90
60717;DHT22;46566;52.700;6.192;2023-05-23T10:42:10;17.70;99.90
60717;DHT22;46566;52.700;6.192;2023-05-23T10:44:37;17.50;99.90
60717;DHT22;46566;52.700;6.192;2023-05-23T10:47:03;17.60;99.90
60717;DHT22;46566;52.700;6.192;2023-05-23T10:49:58;17.80;99.90
60717;DHT22;46566;52.700;6.192;2023-05-23T10:52:25;17.90;99.90
60717;DHT22;46566;52.700;6.192;2023-05-23T10:54:52;17.90;99.00
60717;DHT22;46566;52.700;6.192;2023-05-23T10:57:24;18.00;97.60
60717;DHT22;46566;52.700;6.192;2023-05-23T11:00:14;18.00;91.80
60717;DHT22;46566;52.700;6.192;2023-05-23T11:02:52;17.90;99.90
60717;DHT22;46566;52.700;6.192;2023-05-23T11:05:19;17.90;99.90
60717;DHT22;46566;52.700;6.192;2023-05-23T11:08:12;17.90;99.90
60717;DHT22;46566;52.700;6.192;2023-05-23T11:13:53;18.00;94.30
60717;DHT22;46566;52.700;6.192;2023-05-23T11:22:02;18.10;87.00
60717;DHT22;46566;52.700;6.192;2023-05-23T11:24:55;18.10;99.90
60717;DHT22;46566;52.700;6.192;2023-05-23T11:27:34;18.00;95.40
60717;DHT22;46566;52.700;6.192;2023-05-23T11:30:31;18.10;99.80
60717;DHT22;46566;52.700;6.192;2023-05-23T11:32:58;18.10;99.90
60717;DHT22;46566;52.700;6.192;2023-05-23T11:35:23;18.30;99.90
60717;DHT22;46566;52.700;6.192;2023-05-23T11:37:49;18.30;97.80
60717;DHT22;46566;52.700;6.192;2023-05-23T11:40:39;18.20;92.40
60717;DHT22;46566;52.700;6.192;2023-05-23T11:43:10;18.00;99.90
60717;DHT22;46566;52.700;6.192;2023-05-23T11:45:37;17.80;99.90
60717;DHT22;46566;52.700;6.192;2023-05-23T11:48:09;17.60;99.90
60717;DHT22;46566;52.700;6.192;2023-05-23T11:51:01;17.60;99.90
60717;DHT22;46566;52.700;6.192;2023-05-23T11:53:27;17.80;99.90
60717;DHT22;46566;52.700;6.192;2023-05-23T11:55:57;17.90;99.90
60717;DHT22;46566;52.700;6.192;2023-05-23T11:58:41;18.20;99.90
60717;DHT22;46566;52.700;6.192;2023-05-23T12:01:10;18.20;99.90
60717;DHT22;46566;52.700;6.192;2023-05-23T12:03:49;18.20;99.90
60717;DHT22;46566;52.700;6.192;2023-05-23T12:06:35;18.20;91.50
60717;DHT22;46566;52.700;6.192;2023-05-23T12:09:03;18.40;97.10
60717;DHT22;46566;52.700;6.192;2023-05-23T12:11:32;18.60;90.70
60717;DHT22;46566;52.700;6.192;2023-05-23T12:13:58;18.70;82.50
60717;DHT22;46566;52.700;6.192;2023-05-23T12:16:51;18.80;74.30
60717;DHT22;46566;52.700;6.192;2023-05-23T12:19:17;18.90;74.40
60717;DHT22;46566;52.700;6.192;2023-05-23T12:21:47;18.80;73.10
60717;DHT22;46566;52.700;6.192;2023-05-23T12:24:35;18.80;80.20
60717;DHT22;46566;52.700;6.192;2023-05-23T12:27:01;19.00;83.40
60717;DHT22;46566;52.700;6.192;2023-05-23T12:29:33;18.90;79.50
60717;DHT22;46566;52.700;6.192;2023-05-23T12:32:01;18.90;75.40
60717;DHT22;46566;52.700;6.192;2023-05-23T12:34:43;18.80;70.20
60717;DHT22;46566;52.700;6.192;2023-05-23T12:37:12;18.70;69.60
60717;DHT22;46566;52.700;6.192;2023-05-23T12:39:38;18.50;68.60
60717;DHT22;46566;52.700;6.192;2023-05-23T12:42:08;18.30;72.50
60717;DHT22;46566;52.700;6.192;2023-05-23T12:44:53;18.10;75.00
60717;DHT22;46566;52.700;6.192;2023-05-23T12:47:18;17.90;74.30
60717;DHT22;46566;52.700;6.192;2023-05-23T12:49:45;17.90;77.70
60717;DHT22;46566;52.700;6.192;2023-05-23T12:52:11;17.90;82.20
60717;DHT22;46566;52.700;6.192;2023-05-23T12:54:37;17.90;79.20
60717;DHT22;46566;52.700;6.192;2023-05-23T12:57:29;17.90;78.10
60717;DHT22;46566;52.700;6.192;2023-05-23T12:59:55;17.90;93.70
60717;DHT22;46566;52.700;6.192;2023-05-23T13:02:21;18.00;78.00
60717;DHT22;46566;52.700;6.192;2023-05-23T13:04:47;18.30;87.00
60717;DHT22;46566;52.700;6.192;2023-05-23T13:07:38;18.40;76.20
60717;DHT22;46566;52.700;6.192;2023-05-23T13:10:04;18.50;69.10
60717;DHT22;46566;52.700;6.192;2023-05-23T13:12:30;18.50;63.80
60717;DHT22;46566;52.700;6.192;2023-05-23T13:14:57;18.70;67.30
60717;DHT22;46566;52.700;6.192;2023-05-23T13:17:48;18.70;66.50
60717;DHT22;46566;52.700;6.192;2023-05-23T13:20:14;18.50;70.60
60717;DHT22;46566;52.700;6.192;2023-05-23T13:22:40;18.20;93.20
60717;DHT22;46566;52.700;6.192;2023-05-23T13:25:25;18.00;75.60
60717;DHT22;46566;52.700;6.192;2023-05-23T13:27:51;17.90;78.10
60717;DHT22;46566;52.700;6.192;2023-05-23T13:30:21;17.70;90.90
60717;DHT22;46566;52.700;6.192;2023-05-23T13:32:47;17.80;92.80
60717;DHT22;46566;52.700;6.192;2023-05-23T13:35:13;18.00;89.80
60717;DHT22;46566;52.700;6.192;2023-05-23T13:38:04;18.20;80.00
60717;DHT22;46566;52.700;6.192;2023-05-23T13:40:30;18.20;70.40
60717;DHT22;46566;52.700;6.192;2023-05-23T13:42:56;18.00;89.90
60717;DHT22;46566;52.700;6.192;2023-05-23T13:45:21;17.80;73.10
60717;DHT22;46566;52.700;6.192;2023-05-23T13:48:12;17.70;80.00
60717;DHT22;46566;52.700;6.192;2023-05-23T13:50:38;17.90;77.20
60717;DHT22;46566;52.700;6.192;2023-05-23T13:53:04;18.00;68.30
60717;DHT22;46566;52.700;6.192;2023-05-23T13:55:50;18.10;92.70
60717;DHT22;46566;52.700;6.192;2023-05-23T13:58:16;18.20;76.00
60717;DHT22;46566;52.700;6.192;2023-05-23T14:00:41;18.20;65.20
60717;DHT22;46566;52.700;6.192;2023-05-23T14:03:07;18.30;65.80
60717;DHT22;46566;52.700;6.192;2023-05-23T14:05:33;18.50;67.90
60717;DHT22;46566;52.700;6.192;2023-05-23T14:08:24;18.50;65.20
60717;DHT22;46566;52.700;6.192;2023-05-23T14:10:50;18.40;62.80
60717;DHT22;46566;52.700;6.192;2023-05-23T14:13:16;18.30;64.20
60717;DHT22;46566;52.700;6.192;2023-05-23T14:15:42;18.40;65.50
60717;DHT22;46566;52.700;6.192;2023-05-23T14:18:33;18.50;64.40
60717;DHT22;46566;52.700;6.192;2023-05-23T14:20:59;18.70;64.50
60717;DHT22;46566;52.700;6.192;2023-05-23T14:23:25;18.60;61.60
60717;DHT22;46566;52.700;6.192;2023-05-23T14:25:51;18.50;63.10
60717;DHT22;46566;52.700;6.192;2023-05-23T14:28:41;18.50;61.90
60717;DHT22;46566;52.700;6.192;2023-05-23T14:31:07;18.50;62.40
60717;DHT22;46566;52.700;6.192;2023-05-23T14:33:33;18.40;62.30
60717;DHT22;46566;52.700;6.192;2023-05-23T14:35:59;18.40;63.40
60717;DHT22;46566;52.700;6.192;2023-05-23T14:38:50;18.40;64.50
60717;DHT22;46566;52.700;6.192;2023-05-23T14:41:16;18.30;63.50
60717;DHT22;46566;52.700;6.192;2023-05-23T14:43:42;18.40;63.10
60717;DHT22;46566;52.700;6.192;2023-05-23T14:46:07;18.50;61.90
60717;DHT22;46566;52.700;6.192;2023-05-23T14:48:58;18.50;66.10
60717;DHT22;46566;52.700;6.192;2023-05-23T14:51:24;18.50;63.20
60717;DHT22;46566;52.700;6.192;2023-05-23T14:53:50;18.50;62.00
60717;DHT22;46566;52.700;6.192;2023-05-23T14:56:16;18.30;61.20
60717;DHT22;46566;52.700;6.192;2023-05-23T14:59:06;18.20;62.00
60717;DHT22;46566;52.700;6.192;2023-05-23T15:01:32;18.40;62.90
60717;DHT22;46566;52.700;6.192;2023-05-23T15:03:58;18.30;64.40
60717;DHT22;46566;52.700;6.192;2023-05-23T15:06:24;18.10;63.70
60717;DHT22;46566;52.700;6.192;2023-05-23T15:09:16;17.80;61.60
60717;DHT22;46566;52.700;6.192;2023-05-23T15:11:43;17.70;63.20
60717;DHT22;46566;52.700;6.192;2023-05-23T15:14:15;17.70;61.60
60717;DHT22;46566;52.700;6.192;2023-05-23T15:17:07;17.70;62.40
60717;DHT22;46566;52.700;6.192;2023-05-23T15:19:35;17.60;63.40
60717;DHT22;46566;52.700;6.192;2023-05-23T15:22:03;17.50;64.40
60717;DHT22;46566;52.700;6.192;2023-05-23T15:24:29;17.60;64.60
60717;DHT22;46566;52.700;6.192;2023-05-23T15:27:04;17.60;67.70
60717;DHT22;46566;52.700;6.192;2023-05-23T15:29:30;17.60;65.90
60717;DHT22;46566;52.700;6.192;2023-05-23T15:31:58;17.50;65.10
60717;DHT22;46566;52.700;6.192;2023-05-23T15:34:23;17.30;66.80
60717;DHT22;46566;52.700;6.192;2023-05-23T15:36:49;17.20;65.00
60717;DHT22;46566;52.700;6.192;2023-05-23T15:39:40;17.00;67.60
60717;DHT22;46566;52.700;6.192;2023-05-23T15:42:06;16.90;66.70
60717;DHT22;46566;52.700;6.192;2023-05-23T15:44:32;16.80;68.00
60717;DHT22;46566;52.700;6.192;2023-05-23T15:46:58;16.90;69.20
60717;DHT22;46566;52.700;6.192;2023-05-23T15:49:36;16.70;64.90
60717;DHT22;46566;52.700;6.192;2023-05-23T15:52:02;16.60;65.20
60717;DHT22;46566;52.700;6.192;2023-05-23T15:54:27;16.60;67.80
60717;DHT22;46566;52.700;6.192;2023-05-23T15:56:53;16.50;66.70
60717;DHT22;46566;52.700;6.192;2023-05-23T15:59:19;16.40;68.00
60717;DHT22;46566;52.700;6.192;2023-05-23T16:02:10;16.30;68.20
60717;DHT22;46566;52.700;6.192;2023-05-23T16:04:35;16.20;68.30
60717;DHT22;46566;52.700;6.192;2023-05-23T16:07:04;16.20;68.10
60717;DHT22;46566;52.700;6.192;2023-05-23T16:09:30;16.20;68.10
60717;DHT22;46566;52.700;6.192;2023-05-23T16:12:08;16.20;71.50
60717;DHT22;46566;52.700;6.192;2023-05-23T16:14:33;16.30;69.30